Time;durP1;ratioP1;P1;durP2;ratioP2;P2;SDS_P1;SDS_P2;PMS_P1;PMS_P2;Temp;Humidity;BMP_temperature;BMP_pressure;BME280_temperature;BME280_humidity;BME280_pressure;Samples;Min_cycle;Max_cycle;Signal;HPM_P1;HPM_P2
2021/11/03 00:01:13;;;;;;;33.45;16.45;;;;;;;8.73;89.13;99598.63;1712607;84;21092;-60
2021/11/03 00:03:42;;;;;;;35.20;15.43;;;;;;;8.72;89.15;99593.38;1649174;87;21505;-60
2021/11/03 00:06:13;;;;;;;38.30;17.50;;;;;;;8.72;89.18;99591.48;1713005;82;21041;-60
2021/11/03 00:08:43;;;;;;;35.73;17.55;;;;;;;8.74;89.25;99601.67;1705212;83;21085;-61
2021/11/03 00:11:12;;;;;;;38.45;16.50;;;;;;;8.74;89.28;99598.11;1696713;84;21762;-60
2021/11/03 00:13:42;;;;;;;36.35;17.92;;;;;;;8.77;89.29;99605.89;1696794;84;21490;-61
2021/11/03 00:16:11;;;;;;;41.65;17.48;;;;;;;8.77;89.25;99605.89;1696893;84;22065;-60
2021/11/03 00:18:41;;;;;;;34.35;16.75;;;;;;;8.78;89.23;99605.68;1696701;84;21555;-61
2021/11/03 00:21:10;;;;;;;35.15;16.80;;;;;;;8.77;89.20;99595.80;1696835;84;21481;-61
2021/11/03 00:23:41;;;;;;;38.73;17.67;;;;;;;8.76;89.14;99592.75;1696759;84;21488;-61
2021/11/03 00:26:09;;;;;;;40.12;17.05;;;;;;;8.72;89.09;99596.10;1696712;84;21096;-60
2021/11/03 00:28:38;;;;;;;41.05;17.10;;;;;;;8.70;89.15;99603.66;1696733;84;21566;-62
2021/11/03 00:31:07;;;;;;;39.45;17.85;;;;;;;8.71;89.19;99601.25;1696742;84;21101;-62
2021/11/03 00:33:36;;;;;;;37.40;17.07;;;;;;;8.72;89.22;99598.83;1696721;84;21136;-62
2021/11/03 00:36:07;;;;;;;35.03;16.80;;;;;;;8.74;89.25;99596.22;1696833;84;21042;-63
2021/11/03 00:38:38;;;;;;;34.20;18.05;;;;;;;8.76;89.19;99600.11;1696868;84;21048;-63
2021/11/03 00:41:07;;;;;;;39.78;16.97;;;;;;;8.74;89.22;99600.31;1696743;84;21489;-61
2021/11/03 00:43:37;;;;;;;36.98;17.52;;;;;;;8.77;89.24;99600.42;1696741;84;21127;-62
2021/11/03 00:46:06;;;;;;;41.80;18.07;;;;;;;8.79;89.22;99599.17;1696653;84;21500;-65
2021/11/03 00:48:35;;;;;;;38.13;17.30;;;;;;;8.80;89.17;99592.66;1696699;84;21053;-63
2021/11/03 00:51:05;;;;;;;39.13;18.30;;;;;;;8.80;89.12;99598.64;1696661;84;21104;-62
2021/11/03 00:53:34;;;;;;;37.80;17.25;;;;;;;8.80;89.18;99598.64;1696973;84;21674;-62
2021/11/03 00:56:04;;;;;;;37.53;17.02;;;;;;;8.79;89.23;99599.17;1696759;84;21073;-61
2021/11/03 00:58:34;;;;;;;37.10;18.05;;;;;;;8.82;89.24;99601.48;1666680;84;21123;-61
2021/11/03 01:01:03;;;;;;;37.93;17.52;;;;;;;8.81;89.18;99602.53;1696904;84;21580;-62
2021/11/03 01:03:34;;;;;;;36.50;17.05;;;;;;;8.82;89.16;99596.55;1696810;84;21053;-61
2021/11/03 01:06:03;;;;;;;37.15;17.87;;;;;;;8.81;89.16;99601.70;1696992;84;21497;-62
2021/11/03 01:08:33;;;;;;;36.25;16.77;;;;;;;8.79;89.16;99603.79;1675522;84;21105;-61
2021/11/03 01:11:03;;;;;;;35.48;17.02;;;;;;;8.77;89.21;99601.79;1658213;86;21544;-61
2021/11/03 01:13:35;;;;;;;34.60;15.80;;;;;;;8.76;89.28;99602.84;1630028;87;21068;-60
2021/11/03 01:16:04;;;;;;;39.78;18.65;;;;;;;8.76;89.36;99603.67;1658186;86;21066;-61
2021/11/03 01:18:34;;;;;;;34.27;16.55;;;;;;;8.77;89.38;99595.80;1631502;86;21127;-61
2021/11/03 01:21:03;;;;;;;37.78;17.23;;;;;;;8.79;89.45;99597.80;1658236;86;21180;-62
2021/11/03 01:23:33;;;;;;;38.58;17.67;;;;;;;8.80;89.43;99598.13;1631701;88;21567;-62
2021/11/03 01:26:01;;;;;;;37.10;17.42;;;;;;;8.81;89.44;99600.33;1658266;85;21105;-61
2021/11/03 01:28:31;;;;;;;40.23;18.30;;;;;;;8.79;89.49;99596.97;1631945;87;21134;-61
2021/11/03 01:30:59;;;;;;;35.98;16.95;;;;;;;8.78;89.51;99593.39;1658266;86;21061;-62
2021/11/03 01:33:28;;;;;;;38.45;17.00;;;;;;;8.79;89.54;99596.97;1631750;87;21080;-62
2021/11/03 01:35:58;;;;;;;37.20;16.67;;;;;;;8.80;89.58;99594.02;1658260;86;21465;-62
2021/11/03 01:38:27;;;;;;;36.85;16.85;;;;;;;8.80;89.56;99591.30;1631663;88;21451;-62
2021/11/03 01:40:56;;;;;;;38.55;17.90;;;;;;;8.81;89.58;99592.13;1658196;86;21488;-61
2021/11/03 01:43:47;;;;;;;37.28;17.57;;;;;;;8.82;89.59;99592.45;1631612;86;21524;-62
2021/11/03 01:46:43;;;;;;;38.65;17.42;;;;;;;8.81;89.62;99588.88;1690679;84;21473;-61
2021/11/03 01:49:17;;;;;;;35.35;17.42;;;;;;;8.82;89.73;99593.82;1630794;87;21602;-60
2021/11/03 01:52:04;;;;;;;35.83;16.80;;;;;;;8.85;89.76;99587.94;1658777;85;21074;-61
2021/11/03 01:54:39;;;;;;;37.23;17.25;;;;;;;8.85;89.70;99592.05;1631721;86;21129;-60
2021/11/03 01:57:13;;;;;;;41.00;16.95;;;;;;;8.87;89.70;99594.88;1658378;86;21090;-65
2021/11/03 01:59:44;;;;;;;41.35;18.40;;;;;;;8.86;89.65;99593.20;1631511;88;21103;-62
2021/11/03 02:02:16;;;;;;;43.60;18.07;;;;;;;8.85;89.65;99598.88;1690342;84;21057;-62
2021/11/03 02:04:45;;;;;;;43.20;18.67;;;;;;;8.84;89.70;99598.03;1618700;88;21080;-62
2021/11/03 02:07:22;;;;;;;37.63;17.12;;;;;;;8.86;89.77;99605.49;1658336;85;21084;-61
2021/11/03 02:09:52;;;;;;;40.15;17.87;;;;;;;8.89;89.73;99604.23;1631384;86;21127;-63
2021/11/03 02:12:24;;;;;;;38.75;18.87;;;;;;;8.90;89.70;99604.55;1658267;86;21571;-61
2021/11/03 02:14:55;;;;;;;35.28;17.80;;;;;;;8.89;89.74;99596.88;1631582;88;21055;-62
2021/11/03 02:17:25;;;;;;;34.85;17.02;;;;;;;8.92;89.77;99602.98;1658467;85;21670;-61
2021/11/03 02:19:56;;;;;;;38.90;17.82;;;;;;;8.91;89.74;99602.14;1631553;86;21553;-60
2021/11/03 02:22:32;;;;;;;37.53;17.00;;;;;;;8.92;89.68;99604.35;1658297;85;21501;-62
2021/11/03 02:25:15;;;;;;;35.78;17.05;;;;;;;8.92;89.59;99600.25;1631776;88;21068;-60
2021/11/03 02:27:47;;;;;;;36.93;17.07;;;;;;;8.89;89.63;99596.05;1658596;85;21582;-61
2021/11/03 02:30:19;;;;;;;37.08;17.00;;;;;;;8.87;89.72;99596.77;1631505;86;21024;-61
2021/11/03 02:32:59;;;;;;;36.53;17.42;;;;;;;8.86;89.78;99595.09;1658165;85;21066;-60
2021/11/03 02:35:28;;;;;;;34.27;16.97;;;;;;;8.86;89.75;99596.45;1631471;87;21190;-60
2021/11/03 02:37:58;;;;;;;34.58;17.48;;;;;;;8.85;89.83;99581.95;1658525;86;21081;-62
2021/11/03 02:40:38;;;;;;;36.10;17.23;;;;;;;8.81;89.84;99592.98;1631684;87;21226;-61
2021/11/03 02:43:12;;;;;;;37.38;17.98;;;;;;;8.80;90.04;99587.20;1658434;86;21057;-62
2021/11/03 02:45:48;;;;;;;40.20;17.12;;;;;;;8.83;90.16;99589.52;1631420;88;21065;-60
2021/11/03 02:48:18;;;;;;;38.58;18.17;;;;;;;8.83;90.16;99585.94;1690224;84;21026;-61
2021/11/03 02:51:03;;;;;;;35.00;17.65;;;;;;;8.82;90.17;99583.73;1631687;88;21863;-61
2021/11/03 02:53:39;;;;;;;35.85;17.57;;;;;;;8.84;90.27;99591.72;1658512;85;21093;-61
2021/11/03 02:56:08;;;;;;;40.45;18.00;;;;;;;8.82;90.35;99596.55;1631828;86;21866;-60
2021/11/03 02:58:38;;;;;;;37.20;16.70;;;;;;;8.83;90.42;99602.33;1658506;86;21085;-62
2021/11/03 03:01:38;;;;;;;43.25;17.50;;;;;;;8.86;90.41;99603.28;1631584;86;21645;-61
2021/11/03 03:04:12;;;;;;;37.25;17.40;;;;;;;8.86;90.45;99607.38;1650797;86;21093;-62
2021/11/03 03:06:41;;;;;;;36.53;16.95;;;;;;;8.86;90.49;99610.11;1631712;86;21140;-61
2021/11/03 03:09:10;;;;;;;36.63;17.62;;;;;;;8.88;90.57;99616.22;1658329;83;21577;-63
2021/11/03 03:11:43;;;;;;;36.00;17.32;;;;;;;8.89;90.58;99619.27;1631743;88;21060;-63
2021/11/03 03:14:13;;;;;;;36.80;17.52;;;;;;;8.91;90.52;99617.16;1658336;86;21018;-61
2021/11/03 03:16:43;;;;;;;39.78;18.15;;;;;;;8.91;90.47;99619.90;1618378;88;21209;-62
2021/11/03 03:19:13;;;;;;;35.08;17.12;;;;;;;8.92;90.52;99619.37;1658209;85;21525;-61
2021/11/03 03:21:43;;;;;;;36.93;16.32;;;;;;;8.90;90.56;99614.12;1631534;86;21523;-61
2021/11/03 03:24:12;;;;;;;34.27;16.57;;;;;;;8.90;90.56;99616.33;1658264;85;21058;-63
2021/11/03 03:26:41;;;;;;;32.15;16.05;;;;;;;8.92;90.56;99609.29;1631530;88;21190;-61
2021/11/03 03:29:11;;;;;;;38.60;17.92;;;;;;;8.94;90.58;99609.08;1658490;86;21469;-62
2021/11/03 03:31:40;;;;;;;32.67;16.65;;;;;;;8.90;90.57;99606.77;1631637;86;21131;-60
2021/11/03 03:34:13;;;;;;;34.92;16.62;;;;;;;8.89;90.61;99597.41;1658253;85;21112;-61
2021/11/03 03:36:42;;;;;;;35.03;16.48;;;;;;;8.89;90.64;99591.42;1631482;86;21170;-60
2021/11/03 03:39:13;;;;;;;35.80;16.55;;;;;;;8.90;90.64;99586.27;1658453;85;21499;-62
2021/11/03 03:41:43;;;;;;;34.23;17.20;;;;;;;8.91;90.66;99585.75;1618589;88;21509;-61
2021/11/03 03:44:12;;;;;;;36.75;18.00;;;;;;;8.92;90.70;99591.53;1658304;86;21041;-63
2021/11/03 03:46:43;;;;;;;37.05;17.98;;;;;;;8.92;90.72;99593.42;1631365;87;21076;-62
2021/11/03 03:49:13;;;;;;;37.42;17.60;;;;;;;8.92;90.78;99592.05;1658422;86;21065;-63
2021/11/03 03:51:42;;;;;;;38.35;17.48;;;;;;;8.94;90.84;99600.36;1631465;86;21091;-61
2021/11/03 03:54:11;;;;;;;36.17;15.78;;;;;;;8.96;90.78;99601.00;1658400;86;21604;-61
2021/11/03 03:56:40;;;;;;;36.30;16.30;;;;;;;8.98;90.76;99612.56;1631544;86;21075;-62
2021/11/03 03:59:10;;;;;;;34.00;16.75;;;;;;;8.99;90.72;99616.13;1658361;86;21461;-62
2021/11/03 04:01:40;;;;;;;31.85;16.50;;;;;;;8.97;90.74;99609.52;1618174;88;21052;-61
2021/11/03 04:04:09;;;;;;;33.80;16.05;;;;;;;8.95;90.77;99612.97;1658265;85;21049;-62
2021/11/03 04:06:39;;;;;;;31.73;16.62;;;;;;;8.93;90.78;99610.97;1631875;86;21066;-61
2021/11/03 04:09:08;;;;;;;32.60;16.52;;;;;;;8.94;90.81;99610.45;1658464;85;21066;-61
2021/11/03 04:11:38;;;;;;;33.33;15.83;;;;;;;8.93;90.84;99601.94;1631509;86;21498;-60
2021/11/03 04:14:07;;;;;;;34.00;15.68;;;;;;;8.94;90.89;99600.36;1658254;86;21081;-60
2021/11/03 04:16:36;;;;;;;36.25;17.32;;;;;;;8.97;90.98;99605.41;1631804;88;21668;-61
2021/11/03 04:19:06;;;;;;;35.60;17.15;;;;;;;8.99;90.99;99610.14;1658448;86;22438;-61
2021/11/03 04:21:36;;;;;;;31.45;15.65;;;;;;;9.00;91.02;99599.53;1631412;88;21282;-61
2021/11/03 04:24:07;;;;;;;35.05;16.57;;;;;;;9.01;91.03;99605.84;1657052;86;21074;-61
2021/11/03 04:26:39;;;;;;;34.43;16.87;;;;;;;9.03;91.07;99612.78;1631412;88;21546;-62
2021/11/03 04:29:08;;;;;;;31.15;15.60;;;;;;;9.06;91.05;99612.36;1658264;85;21211;-61
2021/11/03 04:31:39;;;;;;;33.90;16.93;;;;;;;9.07;91.01;99609.95;1631571;86;21515;-62
2021/11/03 04:34:08;;;;;;;32.38;17.30;;;;;;;9.07;90.96;99624.98;1658324;86;21038;-61
2021/11/03 04:36:37;;;;;;;34.25;17.37;;;;;;;9.05;91.00;99616.14;1631449;87;21027;-61
2021/11/03 04:39:08;;;;;;;37.55;17.45;;;;;;;9.07;91.04;99624.14;1658168;86;21121;-62
2021/11/03 04:41:38;;;;;;;34.30;15.83;;;;;;;9.07;91.08;99621.41;1631475;88;21105;-63
2021/11/03 04:44:08;;;;;;;32.42;16.27;;;;;;;9.08;91.13;99625.82;1658225;86;21497;-61
2021/11/03 04:46:37;;;;;;;35.13;16.62;;;;;;;9.10;91.13;99626.45;1631811;87;21067;-62
2021/11/03 04:49:07;;;;;;;33.23;15.55;;;;;;;9.10;91.12;99627.33;1658395;86;21485;-61
2021/11/03 04:51:36;;;;;;;31.52;15.58;;;;;;;9.11;91.14;99630.91;1631615;86;21523;-62
2021/11/03 04:54:06;;;;;;;35.55;16.60;;;;;;;9.11;91.19;99626.80;1658229;86;21185;-61
2021/11/03 04:56:36;;;;;;;30.75;15.95;;;;;;;9.09;91.23;99631.60;1631488;87;21668;-61
2021/11/03 04:59:06;;;;;;;31.27;15.50;;;;;;;9.11;91.31;99630.91;1658513;86;21096;-62
2021/11/03 05:01:36;;;;;;;31.42;15.32;;;;;;;9.12;91.33;99639.42;1631820;87;21056;-61
2021/11/03 05:04:07;;;;;;;31.57;15.30;;;;;;;9.13;91.34;99637.84;1658181;86;21516;-61
2021/11/03 05:06:40;;;;;;;28.83;14.70;;;;;;;9.14;91.35;99636.80;1631508;87;21059;-61
2021/11/03 05:09:10;;;;;;;31.00;15.03;;;;;;;9.17;91.39;99639.12;1658111;86;21352;-64
2021/11/03 05:11:39;;;;;;;30.72;15.30;;;;;;;9.17;91.37;99642.37;1631487;86;21103;-62
2021/11/03 05:14:09;;;;;;;30.15;15.18;;;;;;;9.17;91.44;99648.68;1658456;85;21509;-62
2021/11/03 05:16:39;;;;;;;30.82;15.55;;;;;;;9.20;91.47;99652.89;1631627;87;21471;-60
2021/11/03 05:19:13;;;;;;;28.45;14.23;;;;;;;9.20;91.47;99648.80;1658277;86;21517;-60
2021/11/03 05:21:44;;;;;;;34.00;16.75;;;;;;;9.21;91.46;99643.64;1631792;88;21139;-60
2021/11/03 05:24:13;;;;;;;29.30;15.05;;;;;;;9.23;91.48;99648.38;1658321;86;21147;-61
2021/11/03 05:26:42;;;;;;;28.27;15.13;;;;;;;9.24;91.49;99650.06;1631451;87;21094;-60
2021/11/03 05:29:12;;;;;;;28.55;13.93;;;;;;;9.25;91.50;99644.06;1658174;86;21069;-59
2021/11/03 05:31:41;;;;;;;29.77;15.05;;;;;;;9.25;91.52;99653.11;1631454;86;21088;-61
2021/11/03 05:34:10;;;;;;;30.17;14.18;;;;;;;9.26;91.58;99655.32;1658214;86;21224;-62
2021/11/03 05:36:39;;;;;;;27.67;14.33;;;;;;;9.24;91.60;99650.06;1631548;86;21138;-60
2021/11/03 05:39:13;;;;;;;28.23;14.50;;;;;;;9.26;91.63;99649.85;1657932;86;21096;-60
2021/11/03 05:41:42;;;;;;;25.27;13.20;;;;;;;9.26;91.70;99646.59;1631431;87;21031;-62
2021/11/03 05:44:15;;;;;;;23.47;12.70;;;;;;;9.26;91.69;99647.96;1658196;86;21066;-61
2021/11/03 05:46:55;;;;;;;26.20;12.98;;;;;;;9.26;91.72;99652.59;1631499;86;21162;-62
2021/11/03 05:49:27;;;;;;;23.70;13.25;;;;;;;9.27;91.75;99654.27;1658259;86;21565;-60
2021/11/03 05:51:57;;;;;;;26.05;14.23;;;;;;;9.25;91.82;99653.11;1631996;88;21584;-61
2021/11/03 05:54:26;;;;;;;25.82;13.20;;;;;;;9.26;91.90;99660.78;1658345;86;21579;-60
2021/11/03 05:56:58;;;;;;;28.55;14.13;;;;;;;9.28;91.93;99673.20;1631245;86;21091;-62
2021/11/03 05:59:27;;;;;;;28.15;13.75;;;;;;;9.30;91.96;99686.13;1658252;86;21049;-61
2021/11/03 06:01:56;;;;;;;29.42;15.05;;;;;;;9.31;91.96;99690.55;1631439;88;21079;-59
2021/11/03 06:04:26;;;;;;;25.15;13.48;;;;;;;9.32;91.95;99700.96;1658152;85;21078;-61
2021/11/03 06:06:55;;;;;;;28.65;14.68;;;;;;;9.33;91.96;99708.95;1631807;87;21123;-63
2021/11/03 06:09:23;;;;;;;27.52;14.38;;;;;;;9.32;91.97;99710.01;1658280;85;21039;-60
2021/11/03 06:11:53;;;;;;;31.55;15.63;;;;;;;9.32;92.07;99714.62;1631450;86;21202;-60
2021/11/03 06:14:22;;;;;;;28.65;14.78;;;;;;;9.33;92.08;99712.22;1658415;85;21128;-61
2021/11/03 06:16:52;;;;;;;24.50;13.58;;;;;;;9.35;92.11;99715.59;1631399;86;21025;-61
2021/11/03 06:19:21;;;;;;;24.87;13.25;;;;;;;9.35;92.14;99716.95;1658160;86;21539;-61
2021/11/03 06:21:53;;;;;;;23.73;12.88;;;;;;;9.36;92.17;99718.64;1631555;88;21205;-61
2021/11/03 06:24:23;;;;;;;24.82;12.45;;;;;;;9.37;92.20;99721.69;1658167;85;21093;-64
2021/11/03 06:26:52;;;;;;;27.27;13.65;;;;;;;9.38;92.25;99715.17;1631422;86;21071;-60
2021/11/03 06:29:21;;;;;;;24.30;12.03;;;;;;;9.40;92.32;99722.64;1658229;86;21461;-61
2021/11/03 06:31:50;;;;;;;23.12;10.82;;;;;;;9.41;92.34;99716.97;1631416;87;21087;-60
2021/11/03 06:34:19;;;;;;;22.60;11.80;;;;;;;9.42;92.33;99721.38;1658318;86;21099;-60
2021/11/03 06:36:48;;;;;;;21.25;11.03;;;;;;;9.43;92.34;99724.97;1631366;87;21063;-61
2021/11/03 06:39:17;;;;;;;24.40;11.80;;;;;;;9.44;92.36;99725.28;1658340;85;21161;-60
2021/11/03 06:41:47;;;;;;;23.35;10.85;;;;;;;9.44;92.35;99734.84;1631447;88;21487;-62
2021/11/03 06:44:17;;;;;;;23.32;11.68;;;;;;;9.48;92.40;99738.33;1658234;85;21480;-60
2021/11/03 06:46:47;;;;;;;18.23;9.35;;;;;;;9.47;92.40;99742.11;1631471;86;21111;-60
2021/11/03 06:49:17;;;;;;;13.90;8.63;;;;;;;9.47;92.48;99734.44;1630044;87;21089;-60
2021/11/03 06:51:45;;;;;;;16.73;8.70;;;;;;;9.48;92.49;99736.13;1631716;87;21534;-61
2021/11/03 06:54:14;;;;;;;17.37;8.45;;;;;;;9.48;92.50;99741.59;1630416;88;21531;-61
2021/11/03 06:56:44;;;;;;;14.10;7.83;;;;;;;9.51;92.57;99743.91;1631446;86;21091;-62
2021/11/03 06:59:13;;;;;;;13.25;7.05;;;;;;;9.52;92.58;99741.49;1630252;87;21627;-62
2021/11/03 07:01:42;;;;;;;12.55;7.22;;;;;;;9.54;92.57;99748.97;1631559;86;21060;-61
2021/11/03 07:04:13;;;;;;;12.90;7.42;;;;;;;9.56;92.62;99751.50;1630087;87;21119;-61
2021/11/03 07:06:43;;;;;;;15.32;8.18;;;;;;;9.59;92.65;99752.45;1631565;86;21113;-61
2021/11/03 07:09:12;;;;;;;17.82;8.15;;;;;;;9.61;92.69;99753.92;1630068;87;21104;-60
2021/11/03 07:11:42;;;;;;;15.05;7.15;;;;;;;9.63;92.67;99755.08;1641409;87;21487;-60
2021/11/03 07:14:12;;;;;;;15.23;7.05;;;;;;;9.63;92.63;99758.66;1712577;83;21454;-62
2021/11/03 07:16:43;;;;;;;12.05;6.62;;;;;;;9.65;92.63;99759.30;1712618;84;21009;-62
2021/11/03 07:19:12;;;;;;;15.13;7.92;;;;;;;9.66;92.62;99765.09;1712726;83;21049;-61
2021/11/03 07:21:41;;;;;;;12.90;7.83;;;;;;;9.68;92.63;99767.61;1712610;84;21041;-62
2021/11/03 07:24:12;;;;;;;10.65;6.97;;;;;;;9.69;92.62;99770.14;1712911;84;21069;-62
2021/11/03 07:26:42;;;;;;;13.32;7.17;;;;;;;9.72;92.63;99770.25;1712735;83;21076;-67
2021/11/03 07:29:12;;;;;;;12.88;6.35;;;;;;;9.72;92.65;99763.41;1712606;84;21485;-61
2021/11/03 07:31:40;;;;;;;12.23;7.45;;;;;;;9.74;92.67;99760.78;1712874;84;21081;-63
2021/11/03 07:34:11;;;;;;;10.60;5.92;;;;;;;9.74;92.64;99767.63;1712626;84;21072;-65
2021/11/03 07:36:40;;;;;;;10.80;6.15;;;;;;;9.76;92.60;99765.55;1712684;82;21005;-62
2021/11/03 07:39:09;;;;;;;10.82;5.65;;;;;;;9.78;92.63;99765.34;1712581;82;21124;-62
2021/11/03 07:41:39;;;;;;;10.68;6.22;;;;;;;9.80;92.68;99765.98;1712565;84;21064;-63
2021/11/03 07:44:09;;;;;;;13.88;7.08;;;;;;;9.81;92.72;99765.77;1712595;82;21335;-63
2021/11/03 07:46:39;;;;;;;13.20;7.17;;;;;;;9.85;92.74;99768.41;1712995;83;21727;-61
2021/11/03 07:49:10;;;;;;;11.85;6.87;;;;;;;9.87;92.76;99768.73;1712779;82;21485;-63
2021/11/03 07:51:38;;;;;;;11.15;6.80;;;;;;;9.88;92.79;99767.15;1712590;82;21473;-63
2021/11/03 07:54:16;;;;;;;12.45;6.67;;;;;;;9.89;92.80;99772.94;1712789;83;21104;-65
2021/11/03 07:56:45;;;;;;;11.33;7.03;;;;;;;9.91;92.81;99775.47;1712715;82;21555;-64
2021/11/03 07:59:15;;;;;;;11.38;6.67;;;;;;;9.92;92.83;99776.62;1712683;82;21136;-64
2021/11/03 08:01:44;;;;;;;12.85;7.50;;;;;;;9.95;92.87;99780.84;1712551;82;21049;-64
2021/11/03 08:04:14;;;;;;;16.45;8.80;;;;;;;9.96;92.90;99773.79;1712845;82;21005;-64
2021/11/03 08:06:44;;;;;;;12.05;6.92;;;;;;;10.00;92.94;99783.79;1712734;82;21045;-63
2021/11/03 08:09:14;;;;;;;19.37;11.35;;;;;;;10.01;92.93;99789.05;1712641;82;21009;-64
2021/11/03 08:11:58;;;;;;;18.42;8.53;;;;;;;10.04;92.93;99790.53;1712737;82;21100;-63
2021/11/03 08:14:20;;;;;;;16.97;7.60;;;;;;;10.08;92.94;99780.84;1709133;84;21080;-65
2021/11/03 08:16:55;;;;;;;14.93;7.92;;;;;;;10.10;92.98;99780.11;1712580;82;21033;-64
2021/11/03 08:19:41;;;;;;;14.40;7.90;;;;;;;10.12;92.98;99784.85;1712835;82;21452;-62
2021/11/03 08:22:11;;;;;;;13.38;7.90;;;;;;;10.14;92.92;99785.48;1712778;84;21099;-62
2021/11/03 08:24:40;;;;;;;28.98;11.93;;;;;;;10.18;92.94;99790.85;1712643;82;21061;-63
2021/11/03 08:27:09;;;;;;;18.82;11.33;;;;;;;10.22;92.98;99787.20;1676186;85;21120;-63
2021/11/03 08:29:39;;;;;;;12.03;6.87;;;;;;;10.27;93.01;99792.89;1712326;82;21464;-62
2021/11/03 08:32:10;;;;;;;14.38;7.97;;;;;;;10.31;93.03;99792.26;1712820;82;21536;-64
2021/11/03 08:34:39;;;;;;;14.20;7.45;;;;;;;10.34;93.01;99795.94;1712591;84;21457;-63
2021/11/03 08:37:13;;;;;;;14.03;7.47;;;;;;;10.38;93.03;99793.63;1712639;82;21069;-65
2021/11/03 08:39:44;;;;;;;13.70;7.65;;;;;;;10.42;93.03;99794.92;1712598;83;21037;-63
2021/11/03 08:42:13;;;;;;;12.63;6.70;;;;;;;10.46;93.03;99803.87;1712870;82;21017;-62
2021/11/03 08:44:43;;;;;;;13.18;7.45;;;;;;;10.51;93.00;99807.87;1712633;82;21044;-62
2021/11/03 08:47:14;;;;;;;13.72;8.00;;;;;;;10.54;92.88;99808.28;1712645;84;21084;-63
2021/11/03 08:49:43;;;;;;;16.57;7.62;;;;;;;10.57;92.81;99813.86;1712607;82;21049;-63
2021/11/03 08:52:13;;;;;;;13.70;7.75;;;;;;;10.57;92.71;99810.59;1712538;82;21202;-63
2021/11/03 08:54:45;;;;;;;15.88;8.40;;;;;;;10.57;92.65;99816.61;1712803;82;21045;-65
2021/11/03 08:57:16;;;;;;;15.43;8.10;;;;;;;10.57;92.57;99823.45;1711518;82;21523;-64
2021/11/03 08:59:46;;;;;;;26.50;11.18;;;;;;;10.57;92.50;99823.45;1712574;82;21093;-64
2021/11/03 09:02:15;;;;;;;22.85;10.72;;;;;;;10.57;92.45;99837.99;1712672;82;21525;-62
2021/11/03 09:04:46;;;;;;;18.02;9.35;;;;;;;10.59;92.42;99838.63;1729977;81;21067;-63
2021/11/03 09:07:15;;;;;;;19.00;9.55;;;;;;;10.60;92.40;99843.58;1712886;82;21091;-64
2021/11/03 09:09:47;;;;;;;18.15;9.73;;;;;;;10.62;92.42;99849.16;1710803;84;21045;-65
2021/11/03 09:12:16;;;;;;;14.55;8.40;;;;;;;10.66;92.39;99846.84;1699437;83;21620;-66
2021/11/03 09:14:46;;;;;;;15.05;9.25;;;;;;;10.67;92.32;99848.00;1689657;84;21550;-66
2021/11/03 09:17:17;;;;;;;18.40;9.80;;;;;;;10.72;92.36;99849.57;1681612;84;21524;-65
2021/11/03 09:19:48;;;;;;;20.17;9.55;;;;;;;10.75;92.29;99848.30;1678969;83;21172;-65
2021/11/03 09:22:17;;;;;;;17.25;9.78;;;;;;;10.77;92.25;99840.72;1687024;83;21051;-65
2021/11/03 09:24:46;;;;;;;17.00;9.63;;;;;;;10.80;92.17;99845.77;1685523;83;21104;-65
2021/11/03 09:27:16;;;;;;;20.80;10.98;;;;;;;10.84;92.16;99849.77;1681612;85;21196;-67
2021/11/03 09:29:46;;;;;;;22.10;10.98;;;;;;;10.86;92.07;99844.91;1666470;86;21077;-64
2021/11/03 09:32:18;;;;;;;22.48;10.45;;;;;;;10.91;92.09;99844.27;1620792;88;21073;-66
2021/11/03 09:34:48;;;;;;;23.22;10.88;;;;;;;10.93;92.04;99856.71;1619696;88;21052;-64
2021/11/03 09:37:22;;;;;;;20.55;11.93;;;;;;;10.97;92.02;99858.50;1619472;88;21169;-64
2021/11/03 09:39:54;;;;;;;23.55;11.70;;;;;;;11.00;92.03;99852.06;1626657;87;21196;-65
2021/11/03 09:42:23;;;;;;;26.27;11.55;;;;;;;11.07;91.98;99856.19;1645924;86;21094;-65
2021/11/03 09:44:54;;;;;;;24.25;12.55;;;;;;;11.12;91.90;99855.02;1646594;86;21033;-63
2021/11/03 09:47:33;;;;;;;22.70;12.03;;;;;;;11.16;91.66;99862.28;1646393;87;21144;-65
2021/11/03 09:50:16;;;;;;;23.85;12.05;;;;;;;11.18;91.54;99872.52;1646222;86;21643;-66
2021/11/03 09:52:58;;;;;;;22.10;12.35;;;;;;;11.21;91.44;99867.44;1646069;87;21165;-65
2021/11/03 09:55:31;;;;;;;23.83;13.18;;;;;;;11.23;91.33;99869.97;1646200;86;21595;-67
2021/11/03 09:58:11;;;;;;;26.00;12.47;;;;;;;11.24;91.24;99875.77;1646324;86;21073;-64
2021/11/03 10:01:04;;;;;;;27.77;13.58;;;;;;;11.28;91.16;99879.76;1640013;87;21526;-66
2021/11/03 10:03:52;;;;;;;26.50;13.00;;;;;;;11.32;91.01;99879.64;1646318;86;21156;-64
2021/11/03 10:07:19;;;;;;;24.85;12.60;;;;;;;11.34;90.86;99887.97;1646452;86;21561;-65
2021/11/03 10:09:49;;;;;;;25.80;13.85;;;;;;;11.38;90.78;99891.12;1638621;86;21496;-65
2021/11/03 10:12:19;;;;;;;28.07;14.25;;;;;;;11.40;90.65;99882.15;1652352;85;21513;-64
2021/11/03 10:14:48;;;;;;;24.85;14.23;;;;;;;11.42;90.59;99890.48;1678107;85;21114;-65
2021/11/03 10:17:26;;;;;;;29.65;15.93;;;;;;;11.46;90.54;99893.63;1666017;85;21075;-63
2021/11/03 10:19:55;;;;;;;32.35;14.53;;;;;;;11.50;90.46;99901.74;1689670;85;21059;-65
2021/11/03 10:22:35;;;;;;;27.40;14.68;;;;;;;11.55;90.35;99907.95;1689734;85;21060;-64
2021/11/03 10:25:25;;;;;;;26.75;14.38;;;;;;;11.58;90.23;99905.62;1689621;84;21192;-65
2021/11/03 10:27:59;;;;;;;25.65;15.05;;;;;;;11.62;90.08;99903.28;1689744;84;21083;-65
2021/11/03 10:30:36;;;;;;;30.50;16.05;;;;;;;11.66;89.93;99901.27;1689496;84;21008;-68
2021/11/03 10:33:18;;;;;;;;;;;;;;;11.68;89.58;99902.41;1692095;84;21803;-65
2021/11/03 10:36:01;;;;;;;31.95;17.00;;;;;;;11.70;89.22;99901.67;1661849;86;20229;-66
2021/11/03 10:38:44;;;;;;;30.17;16.15;;;;;;;11.74;89.09;99907.06;1689411;85;21321;-65
2021/11/03 10:41:19;;;;;;;32.65;17.62;;;;;;;11.78;88.70;99900.11;1689800;84;21119;-67
2021/11/03 10:44:04;;;;;;;33.02;17.27;;;;;;;11.82;88.41;99904.64;1664622;85;21080;-66
2021/11/03 10:46:53;;;;;;;33.30;16.23;;;;;;;11.86;88.18;99906.73;1675056;84;21172;-66
2021/11/03 10:49:26;;;;;;;32.33;18.05;;;;;;;11.94;88.07;99911.97;1654407;83;21625;-65
2021/11/03 10:52:24;;;;;;;29.77;16.80;;;;;;;11.99;87.52;99920.92;1635386;87;21044;-65
2021/11/03 10:54:59;;;;;;;28.98;15.85;;;;;;;11.99;87.04;99910.78;1621018;88;21098;-66
2021/11/03 10:57:38;;;;;;;29.63;16.07;;;;;;;12.02;86.64;99914.99;1628199;87;21207;-63
2021/11/03 11:00:27;;;;;;;31.10;16.55;;;;;;;12.02;86.22;99910.88;1593473;89;21089;-66
2021/11/03 11:03:05;;;;;;;31.12;16.48;;;;;;;12.04;85.97;99918.36;1654032;87;21087;-68
2021/11/03 11:05:48;;;;;;;31.33;18.05;;;;;;;12.03;85.70;99915.30;1654043;86;21091;-68
2021/11/03 11:08:20;;;;;;;33.60;17.12;;;;;;;12.03;85.49;99922.17;1654320;86;21480;-67
2021/11/03 11:11:06;;;;;;;32.20;16.17;;;;;;;12.02;85.31;99923.23;1654169;86;21087;-66
2021/11/03 11:13:42;;;;;;;34.13;16.55;;;;;;;12.01;85.21;99916.90;1653737;85;21148;-66
2021/11/03 11:16:20;;;;;;;32.42;17.57;;;;;;;12.03;85.10;99923.55;1668973;85;21130;-67
2021/11/03 11:18:56;;;;;;;33.92;20.68;;;;;;;12.06;85.18;99927.23;1711179;83;21044;-67
2021/11/03 11:21:41;;;;;;;41.80;19.52;;;;;;;12.11;85.34;99936.18;1727603;82;21008;-66
2021/11/03 11:24:27;;;;;;;36.45;20.27;;;;;;;12.17;85.37;99942.17;1727332;82;21032;-65
2021/11/03 11:27:20;;;;;;;38.33;20.30;;;;;;;12.21;85.04;99936.55;1727434;82;21504;-67
2021/11/03 11:30:18;;;;;;;31.93;17.85;;;;;;;12.24;84.88;99943.81;1681441;83;21041;-68
2021/11/03 11:33:18;;;;;;;34.53;18.80;;;;;;;12.29;84.70;99942.63;1727725;83;21478;-67
2021/11/03 11:36:22;;;;;;;35.38;18.75;;;;;;;12.34;84.62;99949.67;1727458;82;21437;-64
2021/11/03 11:39:03;;;;;;;37.05;18.82;;;;;;;12.40;84.56;99945.23;1698784;83;21089;-67
2021/11/03 11:41:57;;;;;;;32.42;19.27;;;;;;;12.43;84.32;99942.58;1727603;83;21032;-68
2021/11/03 11:44:33;;;;;;;36.13;19.32;;;;;;;12.45;84.10;99940.45;1727101;83;21068;-68
2021/11/03 11:47:06;;;;;;;28.47;16.85;;;;;;;12.48;83.79;99946.88;1727399;82;21547;-70
2021/11/03 11:49:41;;;;;;;31.37;17.70;;;;;;;12.49;83.65;99947.19;1727611;83;21472;-68